createdAt,value
2022-09-28T00:01:58.932Z,75.83
2022-09-28T00:04:25.522Z,75.88
2022-09-28T00:06:52.099Z,75.27
2022-09-28T00:09:18.623Z,75.49
2022-09-28T00:11:46.019Z,75.97
2022-09-28T00:14:13.235Z,75.73
2022-09-28T00:16:43.426Z,75.95
2022-09-28T00:19:11.347Z,76.06
2022-09-28T00:21:39.838Z,76.05
2022-09-28T00:24:15.602Z,75.67
2022-09-28T00:26:48.309Z,75.22
2022-09-28T00:29:27.001Z,75.41
2022-09-28T00:31:59.937Z,69.26
2022-09-28T00:34:27.364Z,76.22
2022-09-28T00:36:53.832Z,76.51
2022-09-28T00:39:20.328Z,75.99
2022-09-28T00:41:47.353Z,75.76
2022-09-28T00:44:22.634Z,75.62
2022-09-28T00:46:52.873Z,75.71
2022-09-28T00:49:37.050Z,75.67
2022-09-28T00:52:07.278Z,75.42
2022-09-28T00:54:34.924Z,76.03
2022-09-28T00:57:04.007Z,76.12
2022-09-28T00:59:32.940Z,75.98
2022-09-28T01:01:59.574Z,75.87
2022-09-28T01:04:29.820Z,75.32
2022-09-28T01:06:58.043Z,75.44
2022-09-28T01:09:27.321Z,76.22
2022-09-28T01:11:55.120Z,75.64
2022-09-28T01:14:25.581Z,76.06
2022-09-28T01:17:08.365Z,76.12
2022-09-28T01:19:44.021Z,75.23
2022-09-28T01:22:35.387Z,75.40
2022-09-28T01:25:12.144Z,75.20
2022-09-28T01:27:47.695Z,75.97
2022-09-28T01:30:18.123Z,75.71
2022-09-28T01:32:55.165Z,75.13
2022-09-28T01:35:32.162Z,75.79
2022-09-28T01:38:11.952Z,75.71
2022-09-28T01:40:40.360Z,76.17
2022-09-28T01:43:11.389Z,75.96
2022-09-28T01:45:48.432Z,75.88
2022-09-28T01:48:22.840Z,75.61
2022-09-28T01:50:53.562Z,76.21
2022-09-28T01:53:28.877Z,76.03
2022-09-28T01:56:00.839Z,75.38
2022-09-28T01:58:55.536Z,75.81
2022-09-28T02:01:29.256Z,75.95
2022-09-28T02:04:28.633Z,75.82
2022-09-28T02:07:06.317Z,76.14
2022-09-28T02:09:39.061Z,76.01
2022-09-28T02:12:12.641Z,76.28
2022-09-28T02:14:41.372Z,75.87
2022-09-28T02:17:09.733Z,75.52
2022-09-28T02:19:36.531Z,67.52
2022-09-28T02:22:08.807Z,77.82
2022-09-28T02:24:57.764Z,76.29
2022-09-28T02:27:36.396Z,75.93
2022-09-28T02:30:05.113Z,76.31
2022-09-28T02:32:33.147Z,76.47
2022-09-28T02:34:59.636Z,76.47
2022-09-28T02:37:27.379Z,75.77
2022-09-28T02:39:53.861Z,75.89
2022-09-28T02:42:26.841Z,75.97
2022-09-28T02:45:28.607Z,78.25
2022-09-28T02:48:11.762Z,76.68
2022-09-28T02:51:03.070Z,76.06
2022-09-28T02:53:45.371Z,76.70
2022-09-28T02:56:44.848Z,76.04
2022-09-28T02:59:39.801Z,76.13
2022-09-28T03:02:30.254Z,75.91
2022-09-28T03:05:07.780Z,76.13
2022-09-28T03:07:40.548Z,76.03
2022-09-28T03:10:16.660Z,76.14
2022-09-28T03:12:46.205Z,75.93
2022-09-28T03:15:20.213Z,75.99
2022-09-28T03:17:46.740Z,76.28
2022-09-28T03:20:13.905Z,76.12
2022-09-28T03:22:40.321Z,75.85
2022-09-28T03:25:07.895Z,76.45
2022-09-28T03:27:34.555Z,75.96
2022-09-28T03:30:00.935Z,76.35
2022-09-28T03:32:27.568Z,75.61
2022-09-28T03:34:54.342Z,75.27
2022-09-28T03:37:20.749Z,76.49
2022-09-28T03:39:47.233Z,75.82
2022-09-28T03:42:13.654Z,75.92
2022-09-28T03:44:40.044Z,75.36
2022-09-28T03:47:08.781Z,73.00
2022-09-28T03:49:35.428Z,75.88
2022-09-28T03:52:02.635Z,78.79
2022-09-28T03:54:29.184Z,77.29
2022-09-28T03:56:55.885Z,76.44
2022-09-28T03:59:22.248Z,77.11
2022-09-28T04:01:49.927Z,76.03
2022-09-28T04:04:16.425Z,76.01
2022-09-28T04:06:42.888Z,76.58
2022-09-28T04:09:09.284Z,76.16
2022-09-28T04:11:53.170Z,76.17
2022-09-28T04:14:22.161Z,73.20
2022-09-28T04:16:48.697Z,76.21
2022-09-28T04:19:15.566Z,76.08
2022-09-28T04:21:42.003Z,75.61
2022-09-28T04:24:10.227Z,76.32
2022-09-28T04:26:36.812Z,76.10
2022-09-28T04:29:18.862Z,75.96
2022-09-28T04:31:52.757Z,75.36
2022-09-28T04:34:21.654Z,76.06
2022-09-28T04:36:48.785Z,78.45
2022-09-28T04:39:18.037Z,80.09
2022-09-28T04:41:47.188Z,77.24
2022-09-28T04:44:13.604Z,72.05
2022-09-28T04:46:40.047Z,79.89
2022-09-28T04:49:06.386Z,80.14
2022-09-28T04:51:32.812Z,77.21
2022-09-28T04:53:59.425Z,76.94
2022-09-28T04:56:25.900Z,76.94
2022-09-28T04:58:52.964Z,76.57
2022-09-28T05:01:23.421Z,76.85
2022-09-28T05:03:51.000Z,76.65
2022-09-28T05:06:17.916Z,76.35
2022-09-28T05:08:46.860Z,76.13
2022-09-28T05:11:14.840Z,76.26
2022-09-28T05:13:45.421Z,76.84
2022-09-28T05:16:13.724Z,71.17
2022-09-28T05:18:40.180Z,80.22
2022-09-28T05:21:12.711Z,78.08
2022-09-28T05:23:40.094Z,76.43
2022-09-28T05:26:07.144Z,77.32
2022-09-28T05:28:33.869Z,80.40
2022-09-28T05:31:01.557Z,77.30
2022-09-28T05:33:28.684Z,76.62
2022-09-28T05:35:59.019Z,77.11
2022-09-28T05:38:28.351Z,76.44
2022-09-28T05:40:54.855Z,76.88
2022-09-28T05:43:21.410Z,76.08
2022-09-28T05:45:52.837Z,78.06
2022-09-28T05:48:21.626Z,75.25
2022-09-28T05:50:52.364Z,78.75
2022-09-28T05:53:19.116Z,77.45
2022-09-28T05:55:45.640Z,76.53
2022-09-28T05:58:12.031Z,76.33
2022-09-28T06:00:38.513Z,76.55
2022-09-28T06:03:12.071Z,76.67
2022-09-28T06:05:39.678Z,76.33
2022-09-28T06:08:08.273Z,76.75
2022-09-28T06:10:35.018Z,76.87
2022-09-28T06:13:02.112Z,76.26
2022-09-28T06:15:31.346Z,76.27
2022-09-28T06:18:07.114Z,72.71
2022-09-28T06:20:36.114Z,79.95
2022-09-28T06:23:02.931Z,77.22
2022-09-28T06:25:29.774Z,77.48
2022-09-28T06:28:00.260Z,77.55
2022-09-28T06:30:28.393Z,76.88
2022-09-28T06:32:56.924Z,76.87
2022-09-28T06:35:25.444Z,76.45
2022-09-28T06:37:53.100Z,76.61
2022-09-28T06:40:21.197Z,76.45
2022-09-28T06:43:00.886Z,76.54
2022-09-28T06:45:28.105Z,76.45
2022-09-28T06:47:57.394Z,72.59
2022-09-28T06:50:28.311Z,75.05
2022-09-28T06:52:55.296Z,76.77
2022-09-28T06:55:22.155Z,81.49
2022-09-28T06:57:58.069Z,78.86
2022-09-28T07:00:24.755Z,77.46
2022-09-28T07:02:51.207Z,77.58
2022-09-28T07:05:19.163Z,76.65
2022-09-28T07:07:46.075Z,77.79
2022-09-28T07:10:13.018Z,77.05
2022-09-28T07:12:40.570Z,76.89
2022-09-28T07:15:08.232Z,76.73
2022-09-28T07:17:40.535Z,76.67
2022-09-28T07:20:18.488Z,76.90
2022-09-28T07:22:47.885Z,77.13
2022-09-28T07:25:14.420Z,78.77
2022-09-28T07:27:40.799Z,77.56
2022-09-28T07:30:07.693Z,77.31
2022-09-28T07:32:37.169Z,77.00
2022-09-28T07:35:07.953Z,76.82
2022-09-28T07:37:37.457Z,76.96
2022-09-28T07:40:27.341Z,76.20
2022-09-28T07:42:53.974Z,77.15
2022-09-28T07:45:24.478Z,76.43
2022-09-28T07:47:55.826Z,76.75
2022-09-28T07:50:22.569Z,77.20
2022-09-28T07:52:49.322Z,76.44
2022-09-28T07:55:15.859Z,76.77
2022-09-28T07:57:42.245Z,76.39
2022-09-28T08:00:09.279Z,76.86
2022-09-28T08:02:37.470Z,76.29
2022-09-28T08:05:04.189Z,77.37
2022-09-28T08:07:32.425Z,77.27
2022-09-28T08:09:58.774Z,76.71
2022-09-28T08:12:25.257Z,75.69
2022-09-28T08:14:52.677Z,77.31
2022-09-28T08:17:19.137Z,77.19
2022-09-28T08:20:04.255Z,77.51
2022-09-28T08:22:32.259Z,76.63
2022-09-28T08:24:58.792Z,76.39
2022-09-28T08:27:25.287Z,78.09
2022-09-28T08:29:51.697Z,77.10
2022-09-28T08:32:19.521Z,77.62
2022-09-28T08:34:46.023Z,77.18
2022-09-28T08:37:12.553Z,76.93
2022-09-28T08:39:39.238Z,76.86
2022-09-28T08:42:27.537Z,77.16
2022-09-28T08:44:58.531Z,80.25
2022-09-28T08:47:50.308Z,83.28
2022-09-28T08:50:21.745Z,84.61
2022-09-28T08:52:53.743Z,83.14
2022-09-28T08:55:23.187Z,84.94
2022-09-28T08:58:01.096Z,82.43
2022-09-28T09:00:42.023Z,80.68
2022-09-28T09:03:37.700Z,82.72
2022-09-28T09:06:26.120Z,79.27
2022-09-28T09:09:22.683Z,78.56
2022-09-28T09:12:00.997Z,78.31
2022-09-28T09:14:48.973Z,78.47
2022-09-28T09:17:47.440Z,77.97
2022-09-28T09:20:41.226Z,77.93
2022-09-28T09:23:29.501Z,78.42
2022-09-28T09:26:03.709Z,78.12
2022-09-28T09:28:51.604Z,78.11
2022-09-28T09:31:33.171Z,77.64
2022-09-28T09:34:15.343Z,77.49
2022-09-28T09:36:56.963Z,79.78
2022-09-28T09:39:53.969Z,79.91
2022-09-28T09:42:56.766Z,78.87
2022-09-28T09:45:31.285Z,77.80
2022-09-28T09:48:04.529Z,78.24
2022-09-28T09:50:39.882Z,78.09
2022-09-28T09:53:36.121Z,78.19
2022-09-28T09:56:14.892Z,78.21
2022-09-28T09:58:50.416Z,77.96
2022-09-28T10:01:22.766Z,77.69
2022-09-28T10:03:50.867Z,78.56
2022-09-28T10:06:33.366Z,78.47
2022-09-28T10:09:13.610Z,78.49
2022-09-28T10:11:43.531Z,78.26
2022-09-28T10:14:19.980Z,78.69
2022-09-28T10:16:48.394Z,78.30
2022-09-28T10:19:19.121Z,77.74
2022-09-28T10:21:50.368Z,78.45
2022-09-28T10:24:27.882Z,78.27
2022-09-28T10:26:56.211Z,78.13
2022-09-28T10:29:26.178Z,78.24
2022-09-28T10:31:54.305Z,77.82
2022-09-28T10:34:29.316Z,78.42
2022-09-28T10:37:00.510Z,78.13
2022-09-28T10:39:34.321Z,78.32
2022-09-28T10:42:04.274Z,78.14
2022-09-28T10:44:34.599Z,78.34
2022-09-28T10:47:07.988Z,78.31
2022-09-28T10:49:46.748Z,79.68
2022-09-28T10:52:37.077Z,80.43
2022-09-28T10:55:32.569Z,78.98
2022-09-28T10:58:00.266Z,78.97
2022-09-28T11:00:29.744Z,78.66
2022-09-28T11:02:56.971Z,79.91
2022-09-28T11:05:28.997Z,78.64
2022-09-28T11:07:57.752Z,80.96
2022-09-28T11:10:30.297Z,82.46
2022-09-28T11:12:57.744Z,82.72
2022-09-28T11:15:30.101Z,81.95
2022-09-28T11:17:56.528Z,80.76
2022-09-28T11:20:28.190Z,81.40
2022-09-28T11:23:00.441Z,82.00
2022-09-28T11:25:31.326Z,81.97
2022-09-28T11:28:01.559Z,81.14
2022-09-28T11:30:33.753Z,79.25
2022-09-28T11:33:10.600Z,81.59
2022-09-28T11:36:01.214Z,79.28
2022-09-28T11:38:39.453Z,79.89
2022-09-28T11:41:37.624Z,78.63
2022-09-28T11:44:22.403Z,78.88
2022-09-28T11:47:07.479Z,79.17
2022-09-28T11:49:41.517Z,79.83
2022-09-28T11:52:21.152Z,80.85
2022-09-28T11:54:53.654Z,81.02
2022-09-28T11:57:31.539Z,83.36
2022-09-28T12:00:02.382Z,80.68
2022-09-28T12:02:39.555Z,80.69
2022-09-28T12:05:39.005Z,82.96
2022-09-28T12:08:15.145Z,82.11
2022-09-28T12:10:55.396Z,81.83
2022-09-28T12:13:33.223Z,79.33
2022-09-28T12:21:37.383Z,79.02
2022-09-28T12:24:11.814Z,79.66
2022-09-28T12:27:10.257Z,81.22
2022-09-28T12:29:43.417Z,79.41
2022-09-28T12:32:19.543Z,80.30
2022-09-28T12:34:46.000Z,79.64
2022-09-28T12:37:35.371Z,79.32
2022-09-28T12:40:32.764Z,78.93
2022-09-28T12:43:17.531Z,79.04
2022-09-28T12:46:12.682Z,79.53
2022-09-28T12:51:59.877Z,78.66
2022-09-28T12:54:56.908Z,79.35
2022-09-28T12:57:54.613Z,79.21
2022-09-28T13:00:23.541Z,77.97
2022-09-28T13:03:06.668Z,78.80
2022-09-28T13:05:56.572Z,79.05
2022-09-28T13:08:58.444Z,77.42
2022-09-28T13:11:47.465Z,78.54
2022-09-28T13:14:55.006Z,79.40
2022-09-28T13:17:27.536Z,79.15
2022-09-28T13:20:17.489Z,80.13
2022-09-28T13:22:50.128Z,77.60
2022-09-28T13:25:20.691Z,79.46
2022-09-28T13:27:55.481Z,79.52
2022-09-28T13:30:22.415Z,78.39
2022-09-28T13:32:50.264Z,78.65
2022-09-28T13:35:21.409Z,79.65
2022-09-28T13:38:08.428Z,77.88
2022-09-28T13:41:06.068Z,79.13
2022-09-28T13:43:49.918Z,79.26
2022-09-28T13:46:58.740Z,79.03
2022-09-28T13:50:06.063Z,79.01
2022-09-28T13:52:32.459Z,79.35
2022-09-28T13:55:33.134Z,78.93
2022-09-28T13:58:14.545Z,78.91
2022-09-28T14:00:51.319Z,79.27
2022-09-28T14:03:44.212Z,80.44
2022-09-28T14:06:33.329Z,80.70
2022-09-28T14:09:24.442Z,80.66
2022-09-28T14:11:58.094Z,79.95
2022-09-28T14:14:45.623Z,79.42
2022-09-28T14:17:20.946Z,79.19
2022-09-28T14:19:52.920Z,79.66
2022-09-28T14:22:48.113Z,79.87
2022-09-28T14:25:24.942Z,79.14
2022-09-28T14:28:42.764Z,79.24
2022-09-28T14:31:17.271Z,78.94
2022-09-28T14:33:54.740Z,78.94
2022-09-28T14:36:54.247Z,80.22
2022-09-28T14:39:49.796Z,78.70
2022-09-28T14:42:22.634Z,79.92
2022-09-28T14:45:06.813Z,79.27
2022-09-28T14:47:40.352Z,79.40
2022-09-28T14:50:25.158Z,79.13
2022-09-28T14:52:54.591Z,81.76
2022-09-28T14:55:44.057Z,79.75
2022-09-28T14:58:17.923Z,79.56
2022-09-28T15:00:46.555Z,79.10
2022-09-28T15:03:14.537Z,78.74
2022-09-28T15:05:49.578Z,79.26
2022-09-28T15:08:20.929Z,78.99
2022-09-28T15:10:50.216Z,78.75
2022-09-28T15:13:25.467Z,79.25
2022-09-28T15:15:55.540Z,79.25
2022-09-28T15:18:46.049Z,79.17
2022-09-28T15:21:13.599Z,78.72
2022-09-28T15:23:44.052Z,78.89
2022-09-28T15:26:28.429Z,79.25
2022-09-28T15:28:55.423Z,78.79
2022-09-28T15:31:25.579Z,77.95
2022-09-28T15:34:11.681Z,79.63
2022-09-28T15:36:41.185Z,79.00
2022-09-28T15:39:18.490Z,79.20
2022-09-28T15:41:47.543Z,76.80
2022-09-28T15:44:32.981Z,79.68
2022-09-28T15:47:27.251Z,79.32
2022-09-28T15:50:03.121Z,78.99
2022-09-28T15:52:42.823Z,79.25
2022-09-28T15:55:18.192Z,76.22
2022-09-28T15:57:44.661Z,81.77
2022-09-28T16:00:30.591Z,79.77
2022-09-28T16:03:07.337Z,79.06
2022-09-28T16:05:41.381Z,78.67
2022-09-28T16:08:24.621Z,78.78
2022-09-28T16:10:57.749Z,78.75
2022-09-28T16:13:24.711Z,78.53
2022-09-28T16:15:59.802Z,78.35
2022-09-28T16:18:30.973Z,78.90
2022-09-28T16:21:20.839Z,80.12
2022-09-28T16:23:53.038Z,79.00
2022-09-28T16:26:32.158Z,80.69
2022-09-28T16:28:58.917Z,79.36
2022-09-28T16:31:33.627Z,78.48
2022-09-28T16:34:19.766Z,78.54
2022-09-28T16:36:48.859Z,78.33
2022-09-28T16:39:16.933Z,78.05
2022-09-28T16:41:49.923Z,78.01
2022-09-28T16:44:29.234Z,78.47
2022-09-28T16:46:58.431Z,77.92
2022-09-28T16:49:26.747Z,78.58
2022-09-28T16:51:53.375Z,78.37
2022-09-28T16:54:43.299Z,78.59
2022-09-28T16:57:12.495Z,78.11
2022-09-28T16:59:38.962Z,78.27
2022-09-28T17:02:46.269Z,78.30
2022-09-28T17:05:07.917Z,78.09
2022-09-28T17:07:34.612Z,77.94
2022-09-28T17:10:01.051Z,77.86
2022-09-28T17:12:28.867Z,77.95
2022-09-28T17:14:55.419Z,77.39
2022-09-28T17:17:22.688Z,78.15
2022-09-28T17:19:49.156Z,78.47
2022-09-28T17:22:16.718Z,78.10
2022-09-28T17:24:45.498Z,78.20
2022-09-28T17:27:16.900Z,78.15
2022-09-28T17:29:43.327Z,78.06
2022-09-28T17:32:18.606Z,77.57
2022-09-28T17:34:51.615Z,77.92
2022-09-28T17:37:22.550Z,77.71
2022-09-28T17:39:48.979Z,77.48
2022-09-28T17:42:17.160Z,77.89
2022-09-28T17:44:43.580Z,78.09
2022-09-28T17:47:10.693Z,77.97
2022-09-28T17:49:38.773Z,77.97
2022-09-28T17:52:05.534Z,77.76
2022-09-28T17:54:33.733Z,78.04
2022-09-28T17:57:00.255Z,78.13
2022-09-28T17:59:28.005Z,77.84
2022-09-28T18:01:54.503Z,77.98
2022-09-28T18:04:47.123Z,77.79
2022-09-28T18:07:07.602Z,77.92
2022-09-28T18:09:34.046Z,77.36
2022-09-28T18:12:04.116Z,77.60
2022-09-28T18:14:30.656Z,78.02
2022-09-28T18:16:57.147Z,77.33
2022-09-28T18:19:23.630Z,77.33
2022-09-28T18:21:50.005Z,78.24
2022-09-28T18:24:16.600Z,77.79
2022-09-28T18:26:42.995Z,77.68
2022-09-28T18:29:10.347Z,77.55
2022-09-28T18:31:36.849Z,77.49
2022-09-28T18:34:03.381Z,77.33
2022-09-28T18:36:31.096Z,77.44
2022-09-28T18:38:57.534Z,77.39
2022-09-28T18:41:24.532Z,77.60
2022-09-28T18:43:51.035Z,77.27
2022-09-28T18:46:18.300Z,77.45
2022-09-28T18:48:45.081Z,77.85
2022-09-28T18:51:12.417Z,77.51
2022-09-28T18:53:39.820Z,77.84
2022-09-28T18:56:08.264Z,77.79
2022-09-28T18:58:40.998Z,78.52
2022-09-28T19:01:28.954Z,77.80
2022-09-28T19:03:56.350Z,77.38
2022-09-28T19:06:22.840Z,77.43
2022-09-28T19:08:55.630Z,77.83
2022-09-28T19:11:23.018Z,77.81
2022-09-28T19:13:49.445Z,76.68
2022-09-28T19:16:18.748Z,77.85
2022-09-28T19:18:45.275Z,77.01
2022-09-28T19:21:14.063Z,77.74
2022-09-28T19:23:44.797Z,79.72
2022-09-28T19:26:21.334Z,78.38
2022-09-28T19:28:48.757Z,77.50
2022-09-28T19:31:15.543Z,73.28
2022-09-28T19:33:42.147Z,77.78
2022-09-28T19:36:11.484Z,77.16
2022-09-28T19:38:39.334Z,77.73
2022-09-28T19:41:45.863Z,77.51
2022-09-28T19:44:27.237Z,76.02
2022-09-28T19:46:59.345Z,78.62
2022-09-28T19:49:27.321Z,78.16
2022-09-28T19:52:14.287Z,78.03
2022-09-28T19:54:44.430Z,77.77
2022-09-28T19:57:11.515Z,73.97
2022-09-28T19:59:38.513Z,79.42
2022-09-28T20:02:06.156Z,77.96
2022-09-28T20:04:32.732Z,77.67
2022-09-28T20:06:59.302Z,78.25
2022-09-28T20:09:25.722Z,78.06
2022-09-28T20:11:53.069Z,76.55
2022-09-28T20:14:19.567Z,78.29
2022-09-28T20:16:48.713Z,77.53
2022-09-28T20:19:15.838Z,77.59
2022-09-28T20:21:42.325Z,77.52
2022-09-28T20:24:11.594Z,77.20
2022-09-28T20:26:38.031Z,77.74
2022-09-28T20:29:06.649Z,77.49
2022-09-28T20:31:36.157Z,77.40
2022-09-28T20:34:04.194Z,77.39
2022-09-28T20:36:31.943Z,77.30
2022-09-28T20:39:02.400Z,77.23
2022-09-28T20:41:34.711Z,77.50
2022-09-28T20:44:05.077Z,77.46
2022-09-28T20:46:32.896Z,75.05
2022-09-28T20:48:59.674Z,77.85
2022-09-28T20:51:26.197Z,78.24
2022-09-28T20:53:54.860Z,77.47
2022-09-28T20:56:23.877Z,77.38
2022-09-28T20:58:51.307Z,77.81
2022-09-28T21:01:25.990Z,77.41
2022-09-28T21:03:53.847Z,77.27
2022-09-28T21:06:21.963Z,77.30
2022-09-28T21:08:49.574Z,77.21
2022-09-28T21:11:21.360Z,77.63
2022-09-28T21:13:51.516Z,77.36
2022-09-28T21:16:18.090Z,77.67
2022-09-28T21:18:45.076Z,77.48
2022-09-28T21:21:14.104Z,77.89
2022-09-28T21:23:40.956Z,77.83
2022-09-28T21:26:09.832Z,77.46
2022-09-28T21:28:36.972Z,77.47
2022-09-28T21:31:06.253Z,77.45
2022-09-28T21:33:33.104Z,77.25
2022-09-28T21:36:04.924Z,77.18
2022-09-28T21:38:31.771Z,77.37
2022-09-28T21:40:59.653Z,77.33
2022-09-28T21:43:28.048Z,77.36
2022-09-28T21:45:55.971Z,77.19
2022-09-28T21:48:23.716Z,77.38
2022-09-28T21:50:57.085Z,77.07
2022-09-28T21:53:25.311Z,77.50
2022-09-28T21:55:53.129Z,77.42
2022-09-28T21:58:24.055Z,77.18
2022-09-28T22:00:56.923Z,77.18
2022-09-28T22:03:25.736Z,77.42
2022-09-28T22:05:52.434Z,77.03
2022-09-28T22:08:19.976Z,77.03
2022-09-28T22:10:57.536Z,77.05
2022-09-28T22:13:23.969Z,77.18
2022-09-28T22:15:54.347Z,77.38
2022-09-28T22:18:20.833Z,77.58
2022-09-28T22:20:47.331Z,74.93
2022-09-28T22:23:13.745Z,78.68
2022-09-28T22:25:40.130Z,78.13
2022-09-28T22:28:06.544Z,77.13
2022-09-28T22:30:34.823Z,77.71
2022-09-28T22:33:02.403Z,77.13
2022-09-28T22:35:28.826Z,77.25
2022-09-28T22:37:55.261Z,77.52
2022-09-28T22:40:21.737Z,77.55
2022-09-28T22:42:48.223Z,77.34
2022-09-28T22:45:14.648Z,77.19
2022-09-28T22:47:41.060Z,77.72
2022-09-28T22:50:08.123Z,77.66
2022-09-28T22:52:34.525Z,77.39
2022-09-28T22:55:00.978Z,77.94
2022-09-28T22:57:27.382Z,76.20
2022-09-28T22:59:53.770Z,77.29
2022-09-28T23:02:20.180Z,77.39
2022-09-28T23:04:46.548Z,77.66
2022-09-28T23:07:12.964Z,76.48
2022-09-28T23:09:39.323Z,77.29
2022-09-28T23:12:05.894Z,78.79
2022-09-28T23:14:32.261Z,78.16
2022-09-28T23:16:58.808Z,71.86
2022-09-28T23:19:25.192Z,77.51
2022-09-28T23:21:51.589Z,77.53
2022-09-28T23:24:18.912Z,77.71
2022-09-28T23:26:45.534Z,77.52
2022-09-28T23:29:11.972Z,77.61
2022-09-28T23:31:39.117Z,77.28
2022-09-28T23:34:06.771Z,77.13
2022-09-28T23:36:34.143Z,76.93
2022-09-28T23:39:00.711Z,76.90
2022-09-28T23:41:27.646Z,77.23
2022-09-28T23:43:54.035Z,77.09
2022-09-28T23:46:21.321Z,77.34
2022-09-28T23:48:48.692Z,77.20
2022-09-28T23:51:15.148Z,76.87
2022-09-28T23:53:41.566Z,77.61
2022-09-28T23:56:08.040Z,77.15
2022-09-28T23:58:34.562Z,77.18
